Buoy 41997

sailwx.info

Track history (hours):
 
Tides and Currents Weather Stations Pressure Air Temp Water Temp Dewpoint Dewpoint Depression Visibility Wind Speed Wind Dir Waves Ship Positions

Drifting buoy 41997

Last reported at 2015-Jan-28 17:00 UTC. Time now 2015-Jan-28 18:15 UTC.
Position N 27°21' W 040°20'.

Water temperature 22.0 ° C

Date/timePositionNaut miles runAvg speedWind from/ knotsBaromVisibWave heightAir tempDewpointWater temp
2015-Jan-28 17:00N 27°21' W 040°20'0 0.0 22.0
2015-Jan-28 16:45N 27°21' W 040°20'3 2.2 22.0
2015-Jan-28 15:15N 27°21' W 040°16'1 0.3 22.0
2015-Jan-28 12:45N 27°22' W 040°15'3 3.5 22.0
2015-Jan-28 12:00N 27°23' W 040°13'0 0.0 22.0
2015-Jan-28 11:00N 27°23' W 040°13'0 0.0 22.0
2015-Jan-28 09:00N 27°23' W 040°13'1 3.9 22.0
2015-Jan-28 08:45N 27°24' W 040°12'0 0.1 22.0
2015-Jan-28 07:15N 27°24' W 040°12'1 0.7 22.0
2015-Jan-28 05:30N 27°25' W 040°11'0 0.1 22.0
2015-Jan-28 04:00N 27°25' W 040°11'2 7.8 22.0
2015-Jan-28 03:45N 27°26' W 040°09'0 0.0 22.0
2015-Jan-28 00:30N 27°26' W 040°09'0 0.0 22.0
2015-Jan-28 00:15N 27°26' W 040°09'2 3.4 22.0
2015-Jan-27 23:45N 27°25' W 040°11'2 6.1 22.0
2015-Jan-27 23:30N 27°26' W 040°10'1 0.7 22.0
2015-Jan-27 21:45N 27°26' W 040°08'1 0.8 22.0
2015-Jan-27 20:15N 27°28' W 040°09'1 4.5 22.0
2015-Jan-27 20:00N 27°27' W 040°08'0 0.0 22.0
2015-Jan-27 19:00N 27°27' W 040°08'1 2.6 22.0
2015-Jan-27 18:45N 27°28' W 040°07'1 2.6 22.0
2015-Jan-27 18:30N 27°27' W 040°08'1 0.4 22.0
2015-Jan-27 17:00N 27°28' W 040°07'0 0.0 22.0
2015-Jan-27 15:30N 27°28' W 040°07'0 0.0 22.0
2015-Jan-27 15:15N 27°28' W 040°07'2 0.6 22.0
2015-Jan-27 12:30N 27°28' W 040°05'1 2.9 21.9
2015-Jan-27 12:15N 27°28' W 040°05'2 2.8 21.9
2015-Jan-27 11:30N 27°29' W 040°03'0 0.0 21.9
2015-Jan-27 11:15N 27°29' W 040°03'0 0.1 21.9
2015-Jan-27 09:30N 27°29' W 040°03'0 0.0 21.9
2015-Jan-27 09:15N 27°29' W 040°03'0 0.0 21.9
2015-Jan-27 09:00N 27°29' W 040°03'0 0.4 21.9
2015-Jan-27 07:45N 27°29' W 040°02'0 0.0 21.9
2015-Jan-27 07:15N 27°29' W 040°02'2 1.4 21.9
2015-Jan-27 05:45N 27°30' W 040°00'0 0.0 22.0
2015-Jan-27 04:00N 27°30' W 040°00'0 0.0 22.0
2015-Jan-27 00:45N 27°30' W 040°00'0 0.4 22.0
2015-Jan-27 00:00N 27°31' W 040°00'0 0.0 22.0
2015-Jan-26 23:45N 27°31' W 040°00'1 1.1 22.0
2015-Jan-26 23:00N 27°30' W 039°59'0 0.0 22.0
2015-Jan-26 22:15N 27°30' W 039°59'2 1.5 22.0
2015-Jan-26 21:00N 27°30' W 039°57'0 0.0 22.0
2015-Jan-26 20:30N 27°30' W 039°57'0 0.0 22.0
2015-Jan-26 19:15N 27°30' W 039°57'0 0.0 22.0
2015-Jan-26 19:00N 27°30' W 039°57'0 0.0 22.0
2015-Jan-26 18:45N 27°30' W 039°57'1 0.5 22.1
2015-Jan-26 17:15N 27°30' W 039°58'0 0.0 22.0
2015-Jan-26 15:45N 27°30' W 039°58'0 0.0 22.0
2015-Jan-26 15:30N 27°30' W 039°58'1 0.7 22.0
2015-Jan-26 13:30N 27°29' W 039°56'0 0.0 22.0
2015-Jan-26 12:45N 27°29' W 039°56'0 0.0 22.0
2015-Jan-26 11:45N 27°29' W 039°56'0 0.0 22.0
2015-Jan-26 09:15N 27°29' W 039°56'0 0.0 21.9
2015-Jan-26 09:00N 27°29' W 039°56'1 0.9 21.9
2015-Jan-26 08:00N 27°30' W 039°57'0 0.0 22.0
2015-Jan-26 07:30N 27°30' W 039°57'1 0.9 21.9
2015-Jan-26 06:00N 27°31' W 039°58'0 0.0 22.0
2015-Jan-26 05:45N 27°31' W 039°58'0 0.0 22.0
2015-Jan-26 04:15N 27°31' W 039°58'0 0.0 22.0
2015-Jan-26 01:00N 27°31' W 039°58'0 0.0 22.0
2015-Jan-25 23:30N 27°31' W 039°58'1 0.3 22.0
2015-Jan-25 19:45N 27°32' W 039°58'0 0.0 22.0
2015-Jan-25 19:30N 27°32' W 039°58'0 0.1 22.0
2015-Jan-25 19:00N 27°32' W 039°58'0 0.2 22.0
2015-Jan-25 17:30N 27°32' W 039°58'1 0.8 22.0
2015-Jan-25 15:45N 27°33' W 039°58'1 0.6 22.0
2015-Jan-25 13:45N 27°32' W 039°57'1 0.9 21.9
2015-Jan-25 12:15N 27°34' W 039°56'0 0.0 21.9
2015-Jan-25 12:00N 27°34' W 039°56'0 0.0 21.9
2015-Jan-25 09:00N 27°34' W 039°56'0 0.0 21.9
2015-Jan-25 08:45N 27°34' W 039°56'2 1.9 21.9
2015-Jan-25 07:45N 27°35' W 039°56'0 0.0 21.9
2015-Jan-25 07:30N 27°35' W 039°56'0 0.0 22.0
2015-Jan-25 07:15N 27°35' W 039°56'0 0.0 22.0
2015-Jan-25 06:45N 27°35' W 039°56'0 0.0 22.0
2015-Jan-25 06:15N 27°35' W 039°56'0 0.0 22.0
2015-Jan-25 06:00N 27°35' W 039°56'1 1.0 22.0
2015-Jan-25 04:30N 27°37' W 039°56'0 0.0 22.0
2015-Jan-25 04:15N 27°37' W 039°56'0 0.0 22.0
2015-Jan-24 23:45N 27°37' W 039°56'1 0.2 22.0
2015-Jan-24 20:15N 27°37' W 039°56'0 0.0 22.1
2015-Jan-24 20:00N 27°37' W 039°56'0 0.2 22.1
2015-Jan-24 19:15N 27°38' W 039°56'1 0.3 22.1
2015-Jan-24 17:30N 27°37' W 039°56'0 0.0 22.1
2015-Jan-24 16:00N 27°37' W 039°56'0 1.3 22.1
2015-Jan-24 15:45N 27°37' W 039°56'0 0.1 22.1
2015-Jan-24 12:30N 27°37' W 039°56'0 0.0 22.1
2015-Jan-24 10:45N 27°37' W 039°56'0 0.3 22.0
2015-Jan-24 09:30N 27°37' W 039°56'0 0.0 22.0
2015-Jan-24 09:15N 27°37' W 039°56'0 0.0 22.0
2015-Jan-24 09:00N 27°37' W 039°56'0 0.0 22.0
2015-Jan-24 08:45N 27°37' W 039°56'0 0.1 22.0
2015-Jan-24 08:00N 27°37' W 039°57'0 1.6 22.0
2015-Jan-24 07:45N 27°38' W 039°56'0 0.0 22.0
2015-Jan-24 07:30N 27°38' W 039°56'0 0.5 22.0
2015-Jan-24 07:15N 27°37' W 039°56'0 0.2 22.0
2015-Jan-24 06:15N 27°38' W 039°56'0 0.0 22.0
2015-Jan-24 04:45N 27°38' W 039°56'1 5.9 22.0
2015-Jan-24 04:30N 27°39' W 039°55'0 0.0 22.0
2015-Jan-24 00:15N 27°38' W 039°55'0 0.0 22.1
2015-Jan-24 00:00N 27°38' W 039°55'1 1.3 22.1
2015-Jan-23 23:15N 27°39' W 039°54'1 1.0 22.1
2015-Jan-23 22:30N 27°39' W 039°55'1 3.0 22.1
2015-Jan-23 22:15N 27°39' W 039°54'1 0.5 22.1
2015-Jan-23 20:30N 27°39' W 039°55'0 0.1 22.1
2015-Jan-23 19:30N 27°38' W 039°55'0 0.0 22.1
2015-Jan-23 19:15N 27°38' W 039°55'2 3.0 22.1
2015-Jan-23 18:45N 27°37' W 039°56'0 0.0 22.1
2015-Jan-23 17:45N 27°37' W 039°56'0 0.1 22.1
2015-Jan-23 16:15N 27°37' W 039°56'0 0.0 22.1
2015-Jan-23 16:00N 27°37' W 039°56'3 0.8 22.1
2015-Jan-23 12:45N 27°36' W 039°53'0 0.0 22.1
2015-Jan-23 12:00N 27°36' W 039°53'1 1.1 22.1
2015-Jan-23 11:15N 27°36' W 039°52'0 0.0 22.0
2015-Jan-23 11:00N 27°36' W 039°52'0 0.2 22.0
2015-Jan-23 08:00N 27°36' W 039°53'0 0.0 22.0
2015-Jan-23 07:45N 27°36' W 039°53'1 4.2 22.0
2015-Jan-23 07:30N 27°36' W 039°52'0 0.0 22.0
2015-Jan-23 06:30N 27°36' W 039°52'1 0.3 22.0
2015-Jan-23 04:45N 27°36' W 039°51'0 0.0 22.1
2015-Jan-23 00:30N 27°36' W 039°51'0 0.0 22.1
2015-Jan-23 00:15N 27°36' W 039°51'1 1.8 22.1
2015-Jan-22 23:45N 27°37' W 039°51'0 0.0 22.1
2015-Jan-22 23:30N 27°37' W 039°51'0 0.1 22.1
2015-Jan-22 22:45N 27°37' W 039°51'0 0.0 22.1
2015-Jan-22 21:00N 27°37' W 039°51'1 0.5 22.1
2015-Jan-22 19:45N 27°36' W 039°51'1 3.4 22.1
2015-Jan-22 19:30N 27°37' W 039°51'0 0.0 22.2
2015-Jan-22 19:15N 27°37' W 039°51'0 0.0 22.2
2015-Jan-22 18:00N 27°37' W 039°51'0 0.0 22.2
2015-Jan-22 17:45N 27°37' W 039°51'2 1.3 22.2
2015-Jan-22 16:15N 27°37' W 039°48'2 0.5 22.2
2015-Jan-22 12:30N 27°35' W 039°49'0 1.2 22.1
2015-Jan-22 12:15N 27°35' W 039°49'1 1.6 22.1
2015-Jan-22 11:30N 27°35' W 039°48'1 0.2 22.1
2015-Jan-22 08:15N 27°35' W 039°47'0 0.0 22.1
2015-Jan-22 08:00N 27°35' W 039°47'0 0.0 22.1
2015-Jan-22 07:00N 27°35' W 039°47'0 0.0 22.1
2015-Jan-22 06:45N 27°35' W 039°47'1 4.5 22.1
2015-Jan-22 06:30N 27°35' W 039°46'1 0.7 22.1
2015-Jan-22 05:00N 27°36' W 039°45'0 0.0 22.1
2015-Jan-22 03:15N 27°36' W 039°45'0 0.0 22.1
2015-Jan-22 00:45N 27°36' W 039°45'1 1.5 22.1
2015-Jan-22 00:00N 27°36' W 039°44'0 0.1 22.1
2015-Jan-21 23:15N 27°36' W 039°44'1 3.8 22.1
2015-Jan-21 23:00N 27°37' W 039°43'0 0.0 22.1
2015-Jan-21 21:45N 27°37' W 039°43'0 0.0 22.1
2015-Jan-21 21:30N 27°37' W 039°43'1 0.4 22.1
2015-Jan-21 20:00N 27°37' W 039°42'0 0.0 22.1
2015-Jan-21 19:45N 27°37' W 039°42'0 0.0 22.1
2015-Jan-21 18:00N 27°37' W 039°42'1 0.8 22.2
2015-Jan-21 16:30N 27°38' W 039°41'1 0.6 22.2
2015-Jan-21 14:45N 27°39' W 039°40'0 0.0 22.2
2015-Jan-21 13:30N 27°39' W 039°40'0 0.1 22.1
2015-Jan-21 12:45N 27°39' W 039°40'0 0.0 22.2
2015-Jan-21 12:00N 27°39' W 039°40'1 4.1 22.1
2015-Jan-21 11:45N 27°39' W 039°39'2 0.5 22.1
2015-Jan-21 07:45N 27°40' W 039°37'0 0.0 22.1
2015-Jan-21 07:30N 27°40' W 039°37'0 0.1 22.1
2015-Jan-21 06:45N 27°40' W 039°37'0 0.0 22.1
2015-Jan-21 05:15N 27°40' W 039°37'3 1.7 22.1
2015-Jan-21 03:30N 27°42' W 039°35'0 0.0 22.0
2015-Jan-21 00:15N 27°42' W 039°35'0 0.1 22.0
2015-Jan-20 23:30N 27°42' W 039°35'2 1.8 22.1
2015-Jan-20 22:15N 27°43' W 039°32'0 0.0 22.1
2015-Jan-20 22:00N 27°43' W 039°32'1 0.8 22.1
2015-Jan-20 20:30N 27°44' W 039°32'0 0.0 22.1
2015-Jan-20 18:30N 27°44' W 039°32'1 4.1 22.1
2015-Jan-20 18:15N 27°45' W 039°31'1 0.4 22.1
2015-Jan-20 16:45N 27°45' W 039°31'1 0.5 22.1
2015-Jan-20 15:00N 27°46' W 039°30'0 0.0 22.1
2015-Jan-20 13:45N 27°46' W 039°30'2 1.0 22.1
2015-Jan-20 12:15N 27°46' W 039°28'0 0.0 22.0
2015-Jan-20 09:45N 27°46' W 039°28'0 0.0 22.0
2015-Jan-20 08:45N 27°46' W 039°28'1 3.8 22.1
2015-Jan-20 08:30N 27°46' W 039°27'1 3.8 22.1
2015-Jan-20 08:15N 27°46' W 039°28'0 0.0 22.2
2015-Jan-20 08:00N 27°46' W 039°28'1 1.0 22.2
2015-Jan-20 07:00N 27°46' W 039°27'2 1.1 22.2
2015-Jan-20 05:30N 27°46' W 039°25'0 0.0 22.1
2015-Jan-20 05:15N 27°46' W 039°25'4 2.9 22.2
2015-Jan-20 03:45N 27°47' W 039°20'0 0.0 22.1
2015-Jan-20 00:45N 27°47' W 039°20'0 0.0 22.1
2015-Jan-19 23:45N 27°47' W 039°20'1 1.2 22.1
2015-Jan-19 23:00N 27°48' W 039°20'1 0.5 22.1
2015-Jan-19 22:00N 27°47' W 039°19'0 0.0 22.1
2015-Jan-19 20:30N 27°47' W 039°19'1 3.4 22.2
2015-Jan-19 20:15N 27°47' W 039°18'0 0.0 22.1
2015-Jan-19 20:00N 27°47' W 039°18'0 0.0 22.1
2015-Jan-19 19:15N 27°47' W 039°18'0 0.0 22.1
2015-Jan-19 18:30N 27°47' W 039°18'1 0.8 22.1
2015-Jan-19 17:00N 27°46' W 039°17'0 0.0 22.1
2015-Jan-19 16:45N 27°46' W 039°17'1 0.4 22.1
2015-Jan-19 15:15N 27°46' W 039°17'1 5.7 22.2
2015-Jan-19 15:00N 27°46' W 039°16'0 0.2 22.2
2015-Jan-19 12:30N 27°45' W 039°15'1 1.6 22.4
2015-Jan-19 11:45N 27°46' W 039°14'1 1.7 7.5 22.4
2015-Jan-19 11:00N 27°45' W 039°13'0 0.0 22.4
2015-Jan-19 10:45N 27°45' W 039°13'0 0.0 22.3
2015-Jan-19 09:15N 27°45' W 039°13'0 0.7 22.4
2015-Jan-19 08:45N 27°45' W 039°13'0 0.0 22.4
2015-Jan-19 07:45N 27°45' W 039°13'1 3.0 22.4
2015-Jan-19 07:30N 27°45' W 039°12'0 0.0 22.4
2015-Jan-19 07:15N 27°45' W 039°12'1 2.6 22.4
2015-Jan-19 07:00N 27°45' W 039°12'1 0.4 22.4
2015-Jan-19 05:30N 27°44' W 039°11'0 0.1 22.4
2015-Jan-19 04:00N 27°44' W 039°11'2 8.1 22.4
2015-Jan-19 03:45N 27°45' W 039°09'0 0.0 22.4
2015-Jan-19 00:15N 27°45' W 039°09'0 0.0 22.3
2015-Jan-19 00:00N 27°45' W 039°09'0 0.9 22.2
2015-Jan-18 23:30N 27°45' W 039°08'1 3.4 22.2
2015-Jan-18 23:15N 27°45' W 039°07'1 0.8 22.2
2015-Jan-18 22:30N 27°45' W 039°08'0 0.0 22.2
2015-Jan-18 21:30N 27°45' W 039°08'1 2.0 22.1
2015-Jan-18 21:00N 27°46' W 039°07'0 0.0 22.1
2015-Jan-18 20:30N 27°46' W 039°07'0 0.0 22.1
2015-Jan-18 20:15N 27°46' W 039°07'0 0.0 22.1
2015-Jan-18 19:45N 27°46' W 039°07'1 1.7 22.1
2015-Jan-18 19:15N 27°45' W 039°06'0 0.2 22.2
2015-Jan-18 18:45N 27°45' W 039°06'1 4.1 22.2
2015-Jan-18 18:30N 27°45' W 039°05'0 0.3 22.3
2015-Jan-18 17:00N 27°45' W 039°04'   22.3
Track history (hours):
 
Tides and Currents Weather Stations Pressure Air Temp Water Temp Dewpoint Dewpoint Depression Visibility Wind Speed Wind Dir Waves Ship Positions

Drifting buoy 41997

Last reported at 2015-Jan-28 17:00 UTC. Time now 2015-Jan-28 18:15 UTC.
Position N 27°21' W 040°20'.

Water temperature 22.0 ° C

Date/timePositionNaut miles runAvg speedWind from/ knotsBaromVisibWave heightAir tempDewpointWater temp
2015-Jan-28 17:00N 27°21' W 040°20'0 0.0 22.0
2015-Jan-28 16:45N 27°21' W 040°20'3 2.2 22.0
2015-Jan-28 15:15N 27°21' W 040°16'1 0.3 22.0
2015-Jan-28 12:45N 27°22' W 040°15'3 3.5 22.0
2015-Jan-28 12:00N 27°23' W 040°13'0 0.0 22.0
2015-Jan-28 11:00N 27°23' W 040°13'0 0.0 22.0
2015-Jan-28 09:00N 27°23' W 040°13'1 3.9 22.0
2015-Jan-28 08:45N 27°24' W 040°12'0 0.1 22.0
2015-Jan-28 07:15N 27°24' W 040°12'1 0.7 22.0
2015-Jan-28 05:30N 27°25' W 040°11'0 0.1 22.0
2015-Jan-28 04:00N 27°25' W 040°11'2 7.8 22.0
2015-Jan-28 03:45N 27°26' W 040°09'0 0.0 22.0
2015-Jan-28 00:30N 27°26' W 040°09'0 0.0 22.0
2015-Jan-28 00:15N 27°26' W 040°09'2 3.4 22.0
2015-Jan-27 23:45N 27°25' W 040°11'2 6.1 22.0
2015-Jan-27 23:30N 27°26' W 040°10'1 0.7 22.0
2015-Jan-27 21:45N 27°26' W 040°08'1 0.8 22.0
2015-Jan-27 20:15N 27°28' W 040°09'1 4.5 22.0
2015-Jan-27 20:00N 27°27' W 040°08'0 0.0 22.0
2015-Jan-27 19:00N 27°27' W 040°08'1 2.6 22.0
2015-Jan-27 18:45N 27°28' W 040°07'1 2.6 22.0
2015-Jan-27 18:30N 27°27' W 040°08'1 0.4 22.0
2015-Jan-27 17:00N 27°28' W 040°07'0 0.0 22.0
2015-Jan-27 15:30N 27°28' W 040°07'0 0.0 22.0
2015-Jan-27 15:15N 27°28' W 040°07'2 0.6 22.0
2015-Jan-27 12:30N 27°28' W 040°05'1 2.9 21.9
2015-Jan-27 12:15N 27°28' W 040°05'2 2.8 21.9
2015-Jan-27 11:30N 27°29' W 040°03'0 0.0 21.9
2015-Jan-27 11:15N 27°29' W 040°03'0 0.1 21.9
2015-Jan-27 09:30N 27°29' W 040°03'0 0.0 21.9
2015-Jan-27 09:15N 27°29' W 040°03'0 0.0 21.9
2015-Jan-27 09:00N 27°29' W 040°03'0 0.4 21.9
2015-Jan-27 07:45N 27°29' W 040°02'0 0.0 21.9
2015-Jan-27 07:15N 27°29' W 040°02'2 1.4 21.9
2015-Jan-27 05:45N 27°30' W 040°00'0 0.0 22.0
2015-Jan-27 04:00N 27°30' W 040°00'0 0.0 22.0
2015-Jan-27 00:45N 27°30' W 040°00'0 0.4 22.0
2015-Jan-27 00:00N 27°31' W 040°00'0 0.0 22.0
2015-Jan-26 23:45N 27°31' W 040°00'1 1.1 22.0
2015-Jan-26 23:00N 27°30' W 039°59'0 0.0 22.0
2015-Jan-26 22:15N 27°30' W 039°59'2 1.5 22.0
2015-Jan-26 21:00N 27°30' W 039°57'0 0.0 22.0
2015-Jan-26 20:30N 27°30' W 039°57'0 0.0 22.0
2015-Jan-26 19:15N 27°30' W 039°57'0 0.0 22.0
2015-Jan-26 19:00N 27°30' W 039°57'0 0.0 22.0
2015-Jan-26 18:45N 27°30' W 039°57'1 0.5 22.1
2015-Jan-26 17:15N 27°30' W 039°58'0 0.0 22.0
2015-Jan-26 15:45N 27°30' W 039°58'0 0.0 22.0
2015-Jan-26 15:30N 27°30' W 039°58'1 0.7 22.0
2015-Jan-26 13:30N 27°29' W 039°56'0 0.0 22.0
2015-Jan-26 12:45N 27°29' W 039°56'0 0.0 22.0
2015-Jan-26 11:45N 27°29' W 039°56'0 0.0 22.0
2015-Jan-26 09:15N 27°29' W 039°56'0 0.0 21.9
2015-Jan-26 09:00N 27°29' W 039°56'1 0.9 21.9
2015-Jan-26 08:00N 27°30' W 039°57'0 0.0 22.0
2015-Jan-26 07:30N 27°30' W 039°57'1 0.9 21.9
2015-Jan-26 06:00N 27°31' W 039°58'0 0.0 22.0
2015-Jan-26 05:45N 27°31' W 039°58'0 0.0 22.0
2015-Jan-26 04:15N 27°31' W 039°58'0 0.0 22.0
2015-Jan-26 01:00N 27°31' W 039°58'0 0.0 22.0
2015-Jan-25 23:30N 27°31' W 039°58'1 0.3 22.0
2015-Jan-25 19:45N 27°32' W 039°58'0 0.0 22.0
2015-Jan-25 19:30N 27°32' W 039°58'0 0.1 22.0
2015-Jan-25 19:00N 27°32' W 039°58'0 0.2 22.0
2015-Jan-25 17:30N 27°32' W 039°58'1 0.8 22.0
2015-Jan-25 15:45N 27°33' W 039°58'1 0.6 22.0
2015-Jan-25 13:45N 27°32' W 039°57'1 0.9 21.9
2015-Jan-25 12:15N 27°34' W 039°56'0 0.0 21.9
2015-Jan-25 12:00N 27°34' W 039°56'0 0.0 21.9
2015-Jan-25 09:00N 27°34' W 039°56'0 0.0 21.9
2015-Jan-25 08:45N 27°34' W 039°56'2 1.9 21.9
2015-Jan-25 07:45N 27°35' W 039°56'0 0.0 21.9
2015-Jan-25 07:30N 27°35' W 039°56'0 0.0 22.0
2015-Jan-25 07:15N 27°35' W 039°56'0 0.0 22.0
2015-Jan-25 06:45N 27°35' W 039°56'0 0.0 22.0
2015-Jan-25 06:15N 27°35' W 039°56'0 0.0 22.0
2015-Jan-25 06:00N 27°35' W 039°56'1 1.0 22.0
2015-Jan-25 04:30N 27°37' W 039°56'0 0.0 22.0
2015-Jan-25 04:15N 27°37' W 039°56'0 0.0 22.0
2015-Jan-24 23:45N 27°37' W 039°56'1 0.2 22.0
2015-Jan-24 20:15N 27°37' W 039°56'0 0.0 22.1
2015-Jan-24 20:00N 27°37' W 039°56'0 0.2 22.1
2015-Jan-24 19:15N 27°38' W 039°56'1 0.3 22.1
2015-Jan-24 17:30N 27°37' W 039°56'0 0.0 22.1
2015-Jan-24 16:00N 27°37' W 039°56'0 1.3 22.1
2015-Jan-24 15:45N 27°37' W 039°56'0 0.1 22.1
2015-Jan-24 12:30N 27°37' W 039°56'0 0.0 22.1
2015-Jan-24 10:45N 27°37' W 039°56'0 0.3 22.0
2015-Jan-24 09:30N 27°37' W 039°56'0 0.0 22.0
2015-Jan-24 09:15N 27°37' W 039°56'0 0.0 22.0
2015-Jan-24 09:00N 27°37' W 039°56'0 0.0 22.0
2015-Jan-24 08:45N 27°37' W 039°56'0 0.1 22.0
2015-Jan-24 08:00N 27°37' W 039°57'0 1.6 22.0
2015-Jan-24 07:45N 27°38' W 039°56'0 0.0 22.0
2015-Jan-24 07:30N 27°38' W 039°56'0 0.5 22.0
2015-Jan-24 07:15N 27°37' W 039°56'0 0.2 22.0
2015-Jan-24 06:15N 27°38' W 039°56'0 0.0 22.0
2015-Jan-24 04:45N 27°38' W 039°56'1 5.9 22.0
2015-Jan-24 04:30N 27°39' W 039°55'0 0.0 22.0
2015-Jan-24 00:15N 27°38' W 039°55'0 0.0 22.1
2015-Jan-24 00:00N 27°38' W 039°55'1 1.3 22.1
2015-Jan-23 23:15N 27°39' W 039°54'1 1.0 22.1
2015-Jan-23 22:30N 27°39' W 039°55'1 3.0 22.1
2015-Jan-23 22:15N 27°39' W 039°54'1 0.5 22.1
2015-Jan-23 20:30N 27°39' W 039°55'0 0.1 22.1
2015-Jan-23 19:30N 27°38' W 039°55'0 0.0 22.1
2015-Jan-23 19:15N 27°38' W 039°55'2 3.0 22.1
2015-Jan-23 18:45N 27°37' W 039°56'0 0.0 22.1
2015-Jan-23 17:45N 27°37' W 039°56'0 0.1 22.1
2015-Jan-23 16:15N 27°37' W 039°56'0 0.0 22.1
2015-Jan-23 16:00N 27°37' W 039°56'3 0.8 22.1
2015-Jan-23 12:45N 27°36' W 039°53'0 0.0 22.1
2015-Jan-23 12:00N 27°36' W 039°53'1 1.1 22.1
2015-Jan-23 11:15N 27°36' W 039°52'0 0.0 22.0
2015-Jan-23 11:00N 27°36' W 039°52'0 0.2 22.0
2015-Jan-23 08:00N 27°36' W 039°53'0 0.0 22.0
2015-Jan-23 07:45N 27°36' W 039°53'1 4.2 22.0
2015-Jan-23 07:30N 27°36' W 039°52'0 0.0 22.0
2015-Jan-23 06:30N 27°36' W 039°52'1 0.3 22.0
2015-Jan-23 04:45N 27°36' W 039°51'0 0.0 22.1
2015-Jan-23 00:30N 27°36' W 039°51'0 0.0 22.1
2015-Jan-23 00:15N 27°36' W 039°51'1 1.8 22.1
2015-Jan-22 23:45N 27°37' W 039°51'0 0.0 22.1
2015-Jan-22 23:30N 27°37' W 039°51'0 0.1 22.1
2015-Jan-22 22:45N 27°37' W 039°51'0 0.0 22.1
2015-Jan-22 21:00N 27°37' W 039°51'1 0.5 22.1
2015-Jan-22 19:45N 27°36' W 039°51'1 3.4 22.1
2015-Jan-22 19:30N 27°37' W 039°51'0 0.0 22.2
2015-Jan-22 19:15N 27°37' W 039°51'0 0.0 22.2
2015-Jan-22 18:00N 27°37' W 039°51'0 0.0 22.2
2015-Jan-22 17:45N 27°37' W 039°51'2 1.3 22.2
2015-Jan-22 16:15N 27°37' W 039°48'2 0.5 22.2
2015-Jan-22 12:30N 27°35' W 039°49'0 1.2 22.1
2015-Jan-22 12:15N 27°35' W 039°49'1 1.6 22.1
2015-Jan-22 11:30N 27°35' W 039°48'1 0.2 22.1
2015-Jan-22 08:15N 27°35' W 039°47'0 0.0 22.1
2015-Jan-22 08:00N 27°35' W 039°47'0 0.0 22.1
2015-Jan-22 07:00N 27°35' W 039°47'0 0.0 22.1
2015-Jan-22 06:45N 27°35' W 039°47'1 4.5 22.1
2015-Jan-22 06:30N 27°35' W 039°46'1 0.7 22.1
2015-Jan-22 05:00N 27°36' W 039°45'0 0.0 22.1
2015-Jan-22 03:15N 27°36' W 039°45'0 0.0 22.1
2015-Jan-22 00:45N 27°36' W 039°45'1 1.5 22.1
2015-Jan-22 00:00N 27°36' W 039°44'0 0.1 22.1
2015-Jan-21 23:15N 27°36' W 039°44'1 3.8 22.1
2015-Jan-21 23:00N 27°37' W 039°43'0 0.0 22.1
2015-Jan-21 21:45N 27°37' W 039°43'0 0.0 22.1
2015-Jan-21 21:30N 27°37' W 039°43'1 0.4 22.1
2015-Jan-21 20:00N 27°37' W 039°42'0 0.0 22.1
2015-Jan-21 19:45N 27°37' W 039°42'0 0.0 22.1
2015-Jan-21 18:00N 27°37' W 039°42'1 0.8 22.2
2015-Jan-21 16:30N 27°38' W 039°41'1 0.6 22.2
2015-Jan-21 14:45N 27°39' W 039°40'0 0.0 22.2
2015-Jan-21 13:30N 27°39' W 039°40'0 0.1 22.1
2015-Jan-21 12:45N 27°39' W 039°40'0 0.0 22.2
2015-Jan-21 12:00N 27°39' W 039°40'1 4.1 22.1
2015-Jan-21 11:45N 27°39' W 039°39'2 0.5 22.1
2015-Jan-21 07:45N 27°40' W 039°37'0 0.0 22.1
2015-Jan-21 07:30N 27°40' W 039°37'0 0.1 22.1
2015-Jan-21 06:45N 27°40' W 039°37'0 0.0 22.1
2015-Jan-21 05:15N 27°40' W 039°37'3 1.7 22.1
2015-Jan-21 03:30N 27°42' W 039°35'0 0.0 22.0
2015-Jan-21 00:15N 27°42' W 039°35'0 0.1 22.0
2015-Jan-20 23:30N 27°42' W 039°35'2 1.8 22.1
2015-Jan-20 22:15N 27°43' W 039°32'0 0.0 22.1
2015-Jan-20 22:00N 27°43' W 039°32'1 0.8 22.1
2015-Jan-20 20:30N 27°44' W 039°32'0 0.0 22.1
2015-Jan-20 18:30N 27°44' W 039°32'1 4.1 22.1
2015-Jan-20 18:15N 27°45' W 039°31'1 0.4 22.1
2015-Jan-20 16:45N 27°45' W 039°31'1 0.5 22.1
2015-Jan-20 15:00N 27°46' W 039°30'0 0.0 22.1
2015-Jan-20 13:45N 27°46' W 039°30'2 1.0 22.1
2015-Jan-20 12:15N 27°46' W 039°28'0 0.0 22.0
2015-Jan-20 09:45N 27°46' W 039°28'0 0.0 22.0
2015-Jan-20 08:45N 27°46' W 039°28'1 3.8 22.1
2015-Jan-20 08:30N 27°46' W 039°27'1 3.8 22.1
2015-Jan-20 08:15N 27°46' W 039°28'0 0.0 22.2
2015-Jan-20 08:00N 27°46' W 039°28'1 1.0 22.2
2015-Jan-20 07:00N 27°46' W 039°27'2 1.1 22.2
2015-Jan-20 05:30N 27°46' W 039°25'0 0.0 22.1
2015-Jan-20 05:15N 27°46' W 039°25'4 2.9 22.2
2015-Jan-20 03:45N 27°47' W 039°20'0 0.0 22.1
2015-Jan-20 00:45N 27°47' W 039°20'0 0.0 22.1
2015-Jan-19 23:45N 27°47' W 039°20'1 1.2 22.1
2015-Jan-19 23:00N 27°48' W 039°20'1 0.5 22.1
2015-Jan-19 22:00N 27°47' W 039°19'0 0.0 22.1
2015-Jan-19 20:30N 27°47' W 039°19'1 3.4 22.2
2015-Jan-19 20:15N 27°47' W 039°18'0 0.0 22.1
2015-Jan-19 20:00N 27°47' W 039°18'0 0.0 22.1
2015-Jan-19 19:15N 27°47' W 039°18'0 0.0 22.1
2015-Jan-19 18:30N 27°47' W 039°18'1 0.8 22.1
2015-Jan-19 17:00N 27°46' W 039°17'0 0.0 22.1
2015-Jan-19 16:45N 27°46' W 039°17'1 0.4 22.1
2015-Jan-19 15:15N 27°46' W 039°17'1 5.7 22.2
2015-Jan-19 15:00N 27°46' W 039°16'0 0.2 22.2
2015-Jan-19 12:30N 27°45' W 039°15'1 1.6 22.4
2015-Jan-19 11:45N 27°46' W 039°14'1 1.7 7.5 22.4
2015-Jan-19 11:00N 27°45' W 039°13'0 0.0 22.4
2015-Jan-19 10:45N 27°45' W 039°13'0 0.0 22.3
2015-Jan-19 09:15N 27°45' W 039°13'0 0.7 22.4
2015-Jan-19 08:45N 27°45' W 039°13'0 0.0 22.4
2015-Jan-19 07:45N 27°45' W 039°13'1 3.0 22.4
2015-Jan-19 07:30N 27°45' W 039°12'0 0.0 22.4
2015-Jan-19 07:15N 27°45' W 039°12'1 2.6 22.4
2015-Jan-19 07:00N 27°45' W 039°12'1 0.4 22.4
2015-Jan-19 05:30N 27°44' W 039°11'0 0.1 22.4
2015-Jan-19 04:00N 27°44' W 039°11'2 8.1 22.4
2015-Jan-19 03:45N 27°45' W 039°09'0 0.0 22.4
2015-Jan-19 00:15N 27°45' W 039°09'0 0.0 22.3
2015-Jan-19 00:00N 27°45' W 039°09'0 0.9 22.2
2015-Jan-18 23:30N 27°45' W 039°08'1 3.4 22.2
2015-Jan-18 23:15N 27°45' W 039°07'1 0.8 22.2
2015-Jan-18 22:30N 27°45' W 039°08'0 0.0 22.2
2015-Jan-18 21:30N 27°45' W 039°08'1 2.0 22.1
2015-Jan-18 21:00N 27°46' W 039°07'0 0.0 22.1
2015-Jan-18 20:30N 27°46' W 039°07'0 0.0 22.1
2015-Jan-18 20:15N 27°46' W 039°07'0 0.0 22.1
2015-Jan-18 19:45N 27°46' W 039°07'1 1.7 22.1
2015-Jan-18 19:15N 27°45' W 039°06'0 0.2 22.2
2015-Jan-18 18:45N 27°45' W 039°06'1 4.1 22.2
2015-Jan-18 18:30N 27°45' W 039°05'0 0.3 22.3
2015-Jan-18 17:00N 27°45' W 039°04'   22.3

Dump ship's entire track history